首页
METAR-TAF:

METAR-TAF

机场 :

希尔克内斯, 挪威

纬度: 69-44N, 经度: 029-54E, 海拔: 9米

当前天气观测

该预报发布于35分钟前的14:50 UTC
风速12节,风向北转东北,在东北之间变化
温度 11°C
湿度 50%
气压 1009 hPa
能见度10公里或以上
1500米以下无云,无积雨云

METAR: ENKR 171450Z 03012KT 350V050 CAVOK 11/01 Q1009 RMK WIND 731FT 01012KT

时间: 17:25 (15:25 UTC)

预报

该预报发布于1小时和25分钟前的14:00 UTC
预报有效从17日的 15点(UTC)到 17日的 24点(UTC)
风速8节,风向
能见度10公里或以上
少量云层高于4000英尺

TAF: ENKR 171400Z 1715/1724 35008KT 9999 FEW040

超过4000个机场的气象观测和天气预报(METAR&TAF报告)。

可查询的气象台以黄色和红色小点在地图上表示。

将鼠标移到小点上方,可查看气象台名称。

然后点击查看天气观测和预报。

如需切换地图:点击带黑十字的绿色按钮放大地图;点击带横线的绿色按钮缩小地图;或者点击绿色箭头查看邻近地区的地图。


METAR-TAF: